sensor_id;sensor_type;location;lat;lon;timestamp;temperature;humidity
5130;DHT22;2583;50.946;6.954;2023-07-02T00:00:07;17.90;99.90
5130;DHT22;2583;50.946;6.954;2023-07-02T00:02:35;17.90;99.90
5130;DHT22;2583;50.946;6.954;2023-07-02T00:05:02;17.90;99.90
5130;DHT22;2583;50.946;6.954;2023-07-02T00:07:29;17.90;99.90
5130;DHT22;2583;50.946;6.954;2023-07-02T00:09:57;17.90;99.90
5130;DHT22;2583;50.946;6.954;2023-07-02T00:12:24;17.90;99.90
5130;DHT22;2583;50.946;6.954;2023-07-02T00:14:50;17.90;99.90
5130;DHT22;2583;50.946;6.954;2023-07-02T00:17:20;17.90;99.90
5130;DHT22;2583;50.946;6.954;2023-07-02T00:19:47;17.90;99.90
5130;DHT22;2583;50.946;6.954;2023-07-02T00:22:18;18.00;99.90
5130;DHT22;2583;50.946;6.954;2023-07-02T00:24:45;17.90;99.90
5130;DHT22;2583;50.946;6.954;2023-07-02T00:27:12;17.90;99.90
5130;DHT22;2583;50.946;6.954;2023-07-02T00:29:38;18.00;99.90
5130;DHT22;2583;50.946;6.954;2023-07-02T00:32:05;17.90;99.90
5130;DHT22;2583;50.946;6.954;2023-07-02T00:34:32;17.90;99.90
5130;DHT22;2583;50.946;6.954;2023-07-02T00:36:59;17.90;99.90
5130;DHT22;2583;50.946;6.954;2023-07-02T00:39:25;17.90;99.90
5130;DHT22;2583;50.946;6.954;2023-07-02T00:41:52;17.90;99.90
5130;DHT22;2583;50.946;6.954;2023-07-02T00:44:19;17.90;99.90
5130;DHT22;2583;50.946;6.954;2023-07-02T00:46:50;17.90;99.90
5130;DHT22;2583;50.946;6.954;2023-07-02T00:49:17;17.90;99.90
5130;DHT22;2583;50.946;6.954;2023-07-02T00:51:44;17.80;99.90
5130;DHT22;2583;50.946;6.954;2023-07-02T00:54:10;17.80;99.90
5130;DHT22;2583;50.946;6.954;2023-07-02T00:56:37;17.80;99.90
5130;DHT22;2583;50.946;6.954;2023-07-02T00:59:04;17.80;99.90
5130;DHT22;2583;50.946;6.954;2023-07-02T01:01:33;17.80;99.90
5130;DHT22;2583;50.946;6.954;2023-07-02T01:04:07;17.70;99.90
5130;DHT22;2583;50.946;6.954;2023-07-02T01:06:39;17.70;99.90
5130;DHT22;2583;50.946;6.954;2023-07-02T01:09:07;17.70;99.90
5130;DHT22;2583;50.946;6.954;2023-07-02T01:11:46;17.70;99.90
5130;DHT22;2583;50.946;6.954;2023-07-02T01:14:19;17.70;99.90
5130;DHT22;2583;50.946;6.954;2023-07-02T01:16:47;17.70;99.90
5130;DHT22;2583;50.946;6.954;2023-07-02T01:19:46;17.60;99.90
5130;DHT22;2583;50.946;6.954;2023-07-02T01:22:21;17.70;99.90
5130;DHT22;2583;50.946;6.954;2023-07-02T01:24:52;17.60;99.90
5130;DHT22;2583;50.946;6.954;2023-07-02T01:27:20;17.50;99.90
5130;DHT22;2583;50.946;6.954;2023-07-02T01:29:50;17.50;99.90
5130;DHT22;2583;50.946;6.954;2023-07-02T01:32:17;17.50;99.90
5130;DHT22;2583;50.946;6.954;2023-07-02T01:34:44;17.50;99.90
5130;DHT22;2583;50.946;6.954;2023-07-02T01:37:17;17.50;99.90
5130;DHT22;2583;50.946;6.954;2023-07-02T01:39:44;17.50;99.90
5130;DHT22;2583;50.946;6.954;2023-07-02T01:42:13;17.50;99.90
5130;DHT22;2583;50.946;6.954;2023-07-02T01:44:43;17.50;99.90
5130;DHT22;2583;50.946;6.954;2023-07-02T01:47:10;17.50;99.90
5130;DHT22;2583;50.946;6.954;2023-07-02T01:49:37;17.40;99.90
5130;DHT22;2583;50.946;6.954;2023-07-02T01:52:05;17.40;99.90
5130;DHT22;2583;50.946;6.954;2023-07-02T01:54:34;17.40;99.90
5130;DHT22;2583;50.946;6.954;2023-07-02T01:57:01;17.40;99.90
5130;DHT22;2583;50.946;6.954;2023-07-02T01:59:28;17.40;99.90
5130;DHT22;2583;50.946;6.954;2023-07-02T02:01:54;17.40;99.90
5130;DHT22;2583;50.946;6.954;2023-07-02T02:04:21;17.30;99.90
5130;DHT22;2583;50.946;6.954;2023-07-02T02:06:48;17.30;99.90
5130;DHT22;2583;50.946;6.954;2023-07-02T02:09:15;17.40;99.90
5130;DHT22;2583;50.946;6.954;2023-07-02T02:11:47;17.30;99.90
5130;DHT22;2583;50.946;6.954;2023-07-02T02:14:14;17.30;99.90
5130;DHT22;2583;50.946;6.954;2023-07-02T02:16:41;17.30;99.90
5130;DHT22;2583;50.946;6.954;2023-07-02T02:19:12;17.30;99.90
5130;DHT22;2583;50.946;6.954;2023-07-02T02:21:41;17.30;99.90
5130;DHT22;2583;50.946;6.954;2023-07-02T02:24:08;17.30;99.90
5130;DHT22;2583;50.946;6.954;2023-07-02T02:26:35;17.30;99.90
5130;DHT22;2583;50.946;6.954;2023-07-02T02:29:02;17.30;99.90
5130;DHT22;2583;50.946;6.954;2023-07-02T02:31:28;17.30;99.90
5130;DHT22;2583;50.946;6.954;2023-07-02T02:33:56;17.30;99.90
5130;DHT22;2583;50.946;6.954;2023-07-02T02:36:23;17.30;99.90
5130;DHT22;2583;50.946;6.954;2023-07-02T02:38:50;17.20;99.90
5130;DHT22;2583;50.946;6.954;2023-07-02T02:41:16;17.20;99.90
5130;DHT22;2583;50.946;6.954;2023-07-02T02:43:43;17.20;99.90
5130;DHT22;2583;50.946;6.954;2023-07-02T02:46:22;17.20;99.90
5130;DHT22;2583;50.946;6.954;2023-07-02T02:48:50;17.20;99.90
5130;DHT22;2583;50.946;6.954;2023-07-02T02:51:18;17.20;99.90
5130;DHT22;2583;50.946;6.954;2023-07-02T02:53:44;17.20;99.90
5130;DHT22;2583;50.946;6.954;2023-07-02T02:56:12;17.10;99.90
5130;DHT22;2583;50.946;6.954;2023-07-02T02:58:40;17.00;99.90
5130;DHT22;2583;50.946;6.954;2023-07-02T03:01:06;17.10;99.90
5130;DHT22;2583;50.946;6.954;2023-07-02T03:03:40;17.10;99.90
5130;DHT22;2583;50.946;6.954;2023-07-02T03:06:13;17.10;99.90
5130;DHT22;2583;50.946;6.954;2023-07-02T03:08:40;17.00;99.90
5130;DHT22;2583;50.946;6.954;2023-07-02T03:11:07;17.00;99.90
5130;DHT22;2583;50.946;6.954;2023-07-02T03:13:34;16.90;99.90
5130;DHT22;2583;50.946;6.954;2023-07-02T03:16:00;16.90;99.90
5130;DHT22;2583;50.946;6.954;2023-07-02T03:18:28;16.90;99.90
5130;DHT22;2583;50.946;6.954;2023-07-02T03:20:54;16.90;99.90
5130;DHT22;2583;50.946;6.954;2023-07-02T03:23:21;16.90;99.90
5130;DHT22;2583;50.946;6.954;2023-07-02T03:25:48;16.90;99.90
5130;DHT22;2583;50.946;6.954;2023-07-02T03:28:15;16.90;99.90
5130;DHT22;2583;50.946;6.954;2023-07-02T03:30:41;16.90;99.90
5130;DHT22;2583;50.946;6.954;2023-07-02T03:33:09;16.90;99.90
5130;DHT22;2583;50.946;6.954;2023-07-02T03:35:36;16.90;99.90
5130;DHT22;2583;50.946;6.954;2023-07-02T03:38:04;16.90;99.90
5130;DHT22;2583;50.946;6.954;2023-07-02T03:40:31;16.90;99.90
5130;DHT22;2583;50.946;6.954;2023-07-02T03:42:58;16.90;99.90
5130;DHT22;2583;50.946;6.954;2023-07-02T03:45:25;16.90;99.90
5130;DHT22;2583;50.946;6.954;2023-07-02T03:47:52;16.80;99.90
5130;DHT22;2583;50.946;6.954;2023-07-02T03:50:19;16.80;99.90
5130;DHT22;2583;50.946;6.954;2023-07-02T03:52:46;16.80;99.90
5130;DHT22;2583;50.946;6.954;2023-07-02T03:55:12;16.90;99.90
5130;DHT22;2583;50.946;6.954;2023-07-02T03:57:39;16.90;99.90
5130;DHT22;2583;50.946;6.954;2023-07-02T04:00:06;16.90;99.90
5130;DHT22;2583;50.946;6.954;2023-07-02T04:02:34;16.90;99.90
5130;DHT22;2583;50.946;6.954;2023-07-02T04:05:01;17.00;99.90
5130;DHT22;2583;50.946;6.954;2023-07-02T04:07:28;17.00;99.90
5130;DHT22;2583;50.946;6.954;2023-07-02T04:09:56;17.00;99.90
5130;DHT22;2583;50.946;6.954;2023-07-02T04:12:23;17.00;99.90
5130;DHT22;2583;50.946;6.954;2023-07-02T04:14:50;17.10;99.90
5130;DHT22;2583;50.946;6.954;2023-07-02T04:17:16;17.10;99.90
5130;DHT22;2583;50.946;6.954;2023-07-02T04:19:43;17.10;99.90
5130;DHT22;2583;50.946;6.954;2023-07-02T04:22:10;17.10;99.90
5130;DHT22;2583;50.946;6.954;2023-07-02T04:24:36;17.10;99.90
5130;DHT22;2583;50.946;6.954;2023-07-02T04:27:04;17.20;99.90
5130;DHT22;2583;50.946;6.954;2023-07-02T04:29:50;17.20;99.90
5130;DHT22;2583;50.946;6.954;2023-07-02T04:32:17;17.10;99.90
5130;DHT22;2583;50.946;6.954;2023-07-02T04:34:44;17.10;99.90
5130;DHT22;2583;50.946;6.954;2023-07-02T04:37:11;17.20;99.90
5130;DHT22;2583;50.946;6.954;2023-07-02T04:39:37;17.30;99.90
5130;DHT22;2583;50.946;6.954;2023-07-02T04:42:04;17.20;99.90
5130;DHT22;2583;50.946;6.954;2023-07-02T04:44:31;17.20;99.90
5130;DHT22;2583;50.946;6.954;2023-07-02T04:46:59;17.30;99.90
5130;DHT22;2583;50.946;6.954;2023-07-02T04:49:26;17.20;99.90
5130;DHT22;2583;50.946;6.954;2023-07-02T04:51:53;17.30;99.90
5130;DHT22;2583;50.946;6.954;2023-07-02T04:54:21;17.30;99.90
5130;DHT22;2583;50.946;6.954;2023-07-02T04:56:48;17.30;99.90
5130;DHT22;2583;50.946;6.954;2023-07-02T04:59:15;17.20;99.90
5130;DHT22;2583;50.946;6.954;2023-07-02T05:01:42;17.30;99.90
5130;DHT22;2583;50.946;6.954;2023-07-02T05:04:10;17.30;99.90
5130;DHT22;2583;50.946;6.954;2023-07-02T05:06:40;17.30;99.90
5130;DHT22;2583;50.946;6.954;2023-07-02T05:09:07;17.40;99.90
5130;DHT22;2583;50.946;6.954;2023-07-02T05:11:33;17.40;99.90
5130;DHT22;2583;50.946;6.954;2023-07-02T05:14:00;17.30;99.90
5130;DHT22;2583;50.946;6.954;2023-07-02T05:16:28;17.40;99.90
5130;DHT22;2583;50.946;6.954;2023-07-02T05:18:55;17.40;99.90
5130;DHT22;2583;50.946;6.954;2023-07-02T05:21:22;17.40;99.90
5130;DHT22;2583;50.946;6.954;2023-07-02T05:23:49;17.40;99.90
5130;DHT22;2583;50.946;6.954;2023-07-02T05:26:15;17.50;99.90
5130;DHT22;2583;50.946;6.954;2023-07-02T05:28:42;17.50;99.90
5130;DHT22;2583;50.946;6.954;2023-07-02T05:31:10;17.50;99.90
5130;DHT22;2583;50.946;6.954;2023-07-02T05:33:38;17.50;99.90
5130;DHT22;2583;50.946;6.954;2023-07-02T05:36:05;17.60;99.90
5130;DHT22;2583;50.946;6.954;2023-07-02T05:38:32;17.50;99.90
5130;DHT22;2583;50.946;6.954;2023-07-02T05:40:59;17.60;99.90
5130;DHT22;2583;50.946;6.954;2023-07-02T05:43:25;17.50;99.90
5130;DHT22;2583;50.946;6.954;2023-07-02T05:45:52;17.60;99.90
5130;DHT22;2583;50.946;6.954;2023-07-02T05:48:19;17.60;99.90
5130;DHT22;2583;50.946;6.954;2023-07-02T05:50:46;17.80;99.90
5130;DHT22;2583;50.946;6.954;2023-07-02T05:53:13;17.80;99.90
5130;DHT22;2583;50.946;6.954;2023-07-02T05:55:40;17.90;99.90
5130;DHT22;2583;50.946;6.954;2023-07-02T05:58:08;17.80;99.90
5130;DHT22;2583;50.946;6.954;2023-07-02T06:00:35;17.80;99.90
5130;DHT22;2583;50.946;6.954;2023-07-02T06:03:02;17.90;99.90
5130;DHT22;2583;50.946;6.954;2023-07-02T06:05:29;17.90;99.90
5130;DHT22;2583;50.946;6.954;2023-07-02T06:07:56;17.90;99.90
5130;DHT22;2583;50.946;6.954;2023-07-02T06:10:23;17.90;99.90
5130;DHT22;2583;50.946;6.954;2023-07-02T06:12:49;17.90;99.90
5130;DHT22;2583;50.946;6.954;2023-07-02T06:15:16;17.90;99.90
5130;DHT22;2583;50.946;6.954;2023-07-02T06:17:44;17.90;99.90
5130;DHT22;2583;50.946;6.954;2023-07-02T06:20:11;18.10;99.90
5130;DHT22;2583;50.946;6.954;2023-07-02T06:22:38;18.20;99.90
5130;DHT22;2583;50.946;6.954;2023-07-02T06:25:06;18.40;99.90
5130;DHT22;2583;50.946;6.954;2023-07-02T06:27:33;18.40;99.90
5130;DHT22;2583;50.946;6.954;2023-07-02T06:30:00;18.60;99.90
5130;DHT22;2583;50.946;6.954;2023-07-02T06:32:27;18.60;99.90
5130;DHT22;2583;50.946;6.954;2023-07-02T06:34:53;18.70;99.90
5130;DHT22;2583;50.946;6.954;2023-07-02T06:37:20;18.70;99.40
5130;DHT22;2583;50.946;6.954;2023-07-02T06:39:47;18.70;98.40
5130;DHT22;2583;50.946;6.954;2023-07-02T06:42:13;18.70;97.50
5130;DHT22;2583;50.946;6.954;2023-07-02T06:44:41;18.80;95.40
5130;DHT22;2583;50.946;6.954;2023-07-02T06:47:08;18.80;95.80
5130;DHT22;2583;50.946;6.954;2023-07-02T06:49:36;18.90;96.10
5130;DHT22;2583;50.946;6.954;2023-07-02T06:52:03;19.10;94.90
5130;DHT22;2583;50.946;6.954;2023-07-02T06:54:30;19.10;94.40
5130;DHT22;2583;50.946;6.954;2023-07-02T06:56:57;19.10;94.90
5130;DHT22;2583;50.946;6.954;2023-07-02T06:59:23;19.10;95.50
5130;DHT22;2583;50.946;6.954;2023-07-02T07:01:51;19.10;95.30
5130;DHT22;2583;50.946;6.954;2023-07-02T07:04:17;19.10;95.70
5130;DHT22;2583;50.946;6.954;2023-07-02T07:06:45;19.10;95.60
5130;DHT22;2583;50.946;6.954;2023-07-02T07:09:11;19.30;95.00
5130;DHT22;2583;50.946;6.954;2023-07-02T07:11:38;19.40;94.50
5130;DHT22;2583;50.946;6.954;2023-07-02T07:14:05;19.40;92.90
5130;DHT22;2583;50.946;6.954;2023-07-02T07:16:31;19.40;92.90
5130;DHT22;2583;50.946;6.954;2023-07-02T07:18:58;19.40;93.20
5130;DHT22;2583;50.946;6.954;2023-07-02T07:21:25;19.30;92.80
5130;DHT22;2583;50.946;6.954;2023-07-02T07:23:52;19.30;92.60
5130;DHT22;2583;50.946;6.954;2023-07-02T07:26:18;19.50;90.90
5130;DHT22;2583;50.946;6.954;2023-07-02T07:28:45;19.40;87.00
5130;DHT22;2583;50.946;6.954;2023-07-02T07:31:12;19.40;82.80
5130;DHT22;2583;50.946;6.954;2023-07-02T07:33:39;19.50;76.80
5130;DHT22;2583;50.946;6.954;2023-07-02T07:36:05;19.50;74.70
5130;DHT22;2583;50.946;6.954;2023-07-02T07:38:32;19.60;70.60
5130;DHT22;2583;50.946;6.954;2023-07-02T07:40:59;19.50;67.20
5130;DHT22;2583;50.946;6.954;2023-07-02T07:43:26;19.50;67.00
5130;DHT22;2583;50.946;6.954;2023-07-02T07:45:52;19.70;66.10
5130;DHT22;2583;50.946;6.954;2023-07-02T07:48:19;19.80;66.90
5130;DHT22;2583;50.946;6.954;2023-07-02T07:50:46;19.90;62.70
5130;DHT22;2583;50.946;6.954;2023-07-02T07:53:13;19.90;57.80
5130;DHT22;2583;50.946;6.954;2023-07-02T07:55:40;20.00;57.70
5130;DHT22;2583;50.946;6.954;2023-07-02T07:58:07;20.00;57.20
5130;DHT22;2583;50.946;6.954;2023-07-02T08:00:34;20.10;57.40
5130;DHT22;2583;50.946;6.954;2023-07-02T08:03:00;20.20;56.90
5130;DHT22;2583;50.946;6.954;2023-07-02T08:05:30;20.40;56.90
5130;DHT22;2583;50.946;6.954;2023-07-02T08:07:57;20.40;54.30
5130;DHT22;2583;50.946;6.954;2023-07-02T08:10:24;20.40;55.30
5130;DHT22;2583;50.946;6.954;2023-07-02T08:12:51;20.30;54.30
5130;DHT22;2583;50.946;6.954;2023-07-02T08:15:21;20.30;51.60
5130;DHT22;2583;50.946;6.954;2023-07-02T08:17:48;20.50;52.70
5130;DHT22;2583;50.946;6.954;2023-07-02T08:20:15;20.50;52.40
5130;DHT22;2583;50.946;6.954;2023-07-02T08:22:43;20.60;51.40
5130;DHT22;2583;50.946;6.954;2023-07-02T08:25:10;20.70;51.90
5130;DHT22;2583;50.946;6.954;2023-07-02T08:27:37;20.80;50.40
5130;DHT22;2583;50.946;6.954;2023-07-02T08:30:04;20.70;50.60
5130;DHT22;2583;50.946;6.954;2023-07-02T08:32:31;20.60;48.10
5130;DHT22;2583;50.946;6.954;2023-07-02T08:34:59;20.60;48.50
5130;DHT22;2583;50.946;6.954;2023-07-02T08:37:26;20.50;47.80
5130;DHT22;2583;50.946;6.954;2023-07-02T08:39:52;20.50;47.50
5130;DHT22;2583;50.946;6.954;2023-07-02T08:42:19;20.60;46.90
5130;DHT22;2583;50.946;6.954;2023-07-02T08:44:47;20.70;46.60
5130;DHT22;2583;50.946;6.954;2023-07-02T08:47:16;20.80;46.90
5130;DHT22;2583;50.946;6.954;2023-07-02T08:49:43;20.80;46.10
5130;DHT22;2583;50.946;6.954;2023-07-02T08:52:10;20.90;45.60
5130;DHT22;2583;50.946;6.954;2023-07-02T08:54:37;21.00;46.10
5130;DHT22;2583;50.946;6.954;2023-07-02T08:57:04;21.00;42.90
5130;DHT22;2583;50.946;6.954;2023-07-02T08:59:32;20.90;43.70
5130;DHT22;2583;50.946;6.954;2023-07-02T09:01:59;21.00;42.30
5130;DHT22;2583;50.946;6.954;2023-07-02T09:04:26;20.90;42.10
5130;DHT22;2583;50.946;6.954;2023-07-02T09:07:04;20.80;43.40
5130;DHT22;2583;50.946;6.954;2023-07-02T09:09:32;20.70;43.20
5130;DHT22;2583;50.946;6.954;2023-07-02T09:11:59;20.70;43.80
5130;DHT22;2583;50.946;6.954;2023-07-02T09:14:30;20.80;43.00
5130;DHT22;2583;50.946;6.954;2023-07-02T09:17:08;20.90;42.70
5130;DHT22;2583;50.946;6.954;2023-07-02T09:19:50;20.90;41.70
5130;DHT22;2583;50.946;6.954;2023-07-02T09:22:17;21.00;42.10
5130;DHT22;2583;50.946;6.954;2023-07-02T09:24:55;20.80;41.90
5130;DHT22;2583;50.946;6.954;2023-07-02T09:27:22;20.90;42.20
5130;DHT22;2583;50.946;6.954;2023-07-02T09:32:35;21.10;42.20
5130;DHT22;2583;50.946;6.954;2023-07-02T09:35:02;21.00;43.10
5130;DHT22;2583;50.946;6.954;2023-07-02T09:37:31;21.20;42.80
5130;DHT22;2583;50.946;6.954;2023-07-02T09:39:58;21.20;42.80
5130;DHT22;2583;50.946;6.954;2023-07-02T09:42:26;21.20;43.00
5130;DHT22;2583;50.946;6.954;2023-07-02T09:44:58;21.20;42.00
5130;DHT22;2583;50.946;6.954;2023-07-02T09:47:26;21.20;43.20
5130;DHT22;2583;50.946;6.954;2023-07-02T09:50:02;21.40;41.20
5130;DHT22;2583;50.946;6.954;2023-07-02T09:52:29;21.40;41.60
5130;DHT22;2583;50.946;6.954;2023-07-02T09:54:56;21.40;41.60
5130;DHT22;2583;50.946;6.954;2023-07-02T09:57:23;21.60;41.90
5130;DHT22;2583;50.946;6.954;2023-07-02T09:59:50;22.10;41.90
5130;DHT22;2583;50.946;6.954;2023-07-02T10:02:18;22.20;41.00
5130;DHT22;2583;50.946;6.954;2023-07-02T10:04:46;22.50;40.90
5130;DHT22;2583;50.946;6.954;2023-07-02T10:07:29;22.30;40.20
5130;DHT22;2583;50.946;6.954;2023-07-02T10:09:56;22.40;39.80
5130;DHT22;2583;50.946;6.954;2023-07-02T10:12:25;22.70;39.00
5130;DHT22;2583;50.946;6.954;2023-07-02T10:14:56;22.80;37.60
5130;DHT22;2583;50.946;6.954;2023-07-02T10:17:27;22.70;37.00
5130;DHT22;2583;50.946;6.954;2023-07-02T10:19:57;22.80;37.00
5130;DHT22;2583;50.946;6.954;2023-07-02T10:22:25;22.60;37.10
5130;DHT22;2583;50.946;6.954;2023-07-02T10:25:00;22.60;36.80
5130;DHT22;2583;50.946;6.954;2023-07-02T10:27:41;22.60;35.20
5130;DHT22;2583;50.946;6.954;2023-07-02T10:30:09;22.50;34.60
5130;DHT22;2583;50.946;6.954;2023-07-02T10:32:37;22.40;33.10
5130;DHT22;2583;50.946;6.954;2023-07-02T10:35:18;22.30;32.10
5130;DHT22;2583;50.946;6.954;2023-07-02T10:37:45;22.20;32.40
5130;DHT22;2583;50.946;6.954;2023-07-02T10:40:12;22.50;32.50
5130;DHT22;2583;50.946;6.954;2023-07-02T10:42:52;22.50;31.80
5130;DHT22;2583;50.946;6.954;2023-07-02T10:45:20;22.20;32.40
5130;DHT22;2583;50.946;6.954;2023-07-02T10:47:47;22.20;34.00
5130;DHT22;2583;50.946;6.954;2023-07-02T10:50:19;22.10;33.40
5130;DHT22;2583;50.946;6.954;2023-07-02T10:52:46;21.90;33.90
5130;DHT22;2583;50.946;6.954;2023-07-02T10:55:20;21.90;34.60
5130;DHT22;2583;50.946;6.954;2023-07-02T10:57:48;21.80;35.30
5130;DHT22;2583;50.946;6.954;2023-07-02T11:00:17;21.80;35.80
5130;DHT22;2583;50.946;6.954;2023-07-02T11:02:44;21.90;35.30
5130;DHT22;2583;50.946;6.954;2023-07-02T11:05:12;21.90;34.20
5130;DHT22;2583;50.946;6.954;2023-07-02T11:07:43;22.10;34.60
5130;DHT22;2583;50.946;6.954;2023-07-02T11:10:16;22.20;34.20
5130;DHT22;2583;50.946;6.954;2023-07-02T11:12:44;22.10;33.50
5130;DHT22;2583;50.946;6.954;2023-07-02T11:15:15;22.00;32.80
5130;DHT22;2583;50.946;6.954;2023-07-02T11:17:44;21.90;33.20
5130;DHT22;2583;50.946;6.954;2023-07-02T11:20:12;22.00;33.00
5130;DHT22;2583;50.946;6.954;2023-07-02T11:22:40;22.10;32.80
5130;DHT22;2583;50.946;6.954;2023-07-02T11:25:18;22.30;32.20
5130;DHT22;2583;50.946;6.954;2023-07-02T11:27:46;22.60;31.20
5130;DHT22;2583;50.946;6.954;2023-07-02T11:30:13;22.90;30.00
5130;DHT22;2583;50.946;6.954;2023-07-02T11:32:53;23.10;29.70
5130;DHT22;2583;50.946;6.954;2023-07-02T11:35:22;23.00;29.80
5130;DHT22;2583;50.946;6.954;2023-07-02T11:37:49;23.10;30.00
5130;DHT22;2583;50.946;6.954;2023-07-02T11:40:19;23.20;29.70
5130;DHT22;2583;50.946;6.954;2023-07-02T11:42:46;23.20;29.80
5130;DHT22;2583;50.946;6.954;2023-07-02T11:45:13;23.40;30.00
5130;DHT22;2583;50.946;6.954;2023-07-02T11:47:39;23.30;30.30
5130;DHT22;2583;50.946;6.954;2023-07-02T11:50:07;23.10;31.30
5130;DHT22;2583;50.946;6.954;2023-07-02T11:52:50;22.80;31.70
5130;DHT22;2583;50.946;6.954;2023-07-02T11:55:17;22.70;30.30
5130;DHT22;2583;50.946;6.954;2023-07-02T11:57:44;22.90;30.10
5130;DHT22;2583;50.946;6.954;2023-07-02T12:00:13;23.20;29.80
5130;DHT22;2583;50.946;6.954;2023-07-02T12:02:40;23.40;29.20
5130;DHT22;2583;50.946;6.954;2023-07-02T12:05:07;23.40;28.20
5130;DHT22;2583;50.946;6.954;2023-07-02T12:07:38;23.00;28.20
5130;DHT22;2583;50.946;6.954;2023-07-02T12:10:06;22.80;28.50
5130;DHT22;2583;50.946;6.954;2023-07-02T12:12:33;22.70;27.60
5130;DHT22;2583;50.946;6.954;2023-07-02T12:15:00;23.00;27.20
5130;DHT22;2583;50.946;6.954;2023-07-02T12:17:27;23.10;26.20
5130;DHT22;2583;50.946;6.954;2023-07-02T12:19:53;23.20;26.20
5130;DHT22;2583;50.946;6.954;2023-07-02T12:22:20;23.40;25.40
5130;DHT22;2583;50.946;6.954;2023-07-02T12:24:49;23.40;25.20
5130;DHT22;2583;50.946;6.954;2023-07-02T12:27:16;23.60;24.70
5130;DHT22;2583;50.946;6.954;2023-07-02T12:29:43;23.90;22.60
5130;DHT22;2583;50.946;6.954;2023-07-02T12:32:10;24.00;21.80
5130;DHT22;2583;50.946;6.954;2023-07-02T12:34:37;23.80;20.90
5130;DHT22;2583;50.946;6.954;2023-07-02T12:37:04;23.90;20.70
5130;DHT22;2583;50.946;6.954;2023-07-02T12:39:30;23.90;20.20
5130;DHT22;2583;50.946;6.954;2023-07-02T12:41:57;24.20;19.90
5130;DHT22;2583;50.946;6.954;2023-07-02T12:44:24;24.10;19.90
5130;DHT22;2583;50.946;6.954;2023-07-02T12:46:51;23.80;20.00
5130;DHT22;2583;50.946;6.954;2023-07-02T12:49:18;23.80;20.10
5130;DHT22;2583;50.946;6.954;2023-07-02T12:51:45;23.80;20.50
5130;DHT22;2583;50.946;6.954;2023-07-02T12:54:11;23.70;20.40
5130;DHT22;2583;50.946;6.954;2023-07-02T12:56:38;23.60;20.40
5130;DHT22;2583;50.946;6.954;2023-07-02T12:59:05;23.70;20.80
5130;DHT22;2583;50.946;6.954;2023-07-02T13:01:32;23.80;20.90
5130;DHT22;2583;50.946;6.954;2023-07-02T13:03:59;23.80;21.10
5130;DHT22;2583;50.946;6.954;2023-07-02T13:06:26;23.60;21.10
5130;DHT22;2583;50.946;6.954;2023-07-02T13:08:54;23.70;21.60
5130;DHT22;2583;50.946;6.954;2023-07-02T13:11:22;23.80;21.60
5130;DHT22;2583;50.946;6.954;2023-07-02T13:13:49;23.80;21.70
5130;DHT22;2583;50.946;6.954;2023-07-02T13:16:15;23.60;22.00
5130;DHT22;2583;50.946;6.954;2023-07-02T13:18:42;23.60;22.30
5130;DHT22;2583;50.946;6.954;2023-07-02T13:21:09;24.10;21.90
5130;DHT22;2583;50.946;6.954;2023-07-02T13:23:36;24.80;20.70
5130;DHT22;2583;50.946;6.954;2023-07-02T13:26:03;25.10;20.40
5130;DHT22;2583;50.946;6.954;2023-07-02T13:28:29;25.00;20.60
5130;DHT22;2583;50.946;6.954;2023-07-02T13:30:56;24.70;21.20
5130;DHT22;2583;50.946;6.954;2023-07-02T13:33:23;24.60;21.50
5130;DHT22;2583;50.946;6.954;2023-07-02T13:35:50;24.70;21.80
5130;DHT22;2583;50.946;6.954;2023-07-02T13:38:17;24.90;21.50
5130;DHT22;2583;50.946;6.954;2023-07-02T13:40:44;25.50;21.00
5130;DHT22;2583;50.946;6.954;2023-07-02T13:43:10;25.60;20.80
5130;DHT22;2583;50.946;6.954;2023-07-02T13:45:37;25.70;20.40
5130;DHT22;2583;50.946;6.954;2023-07-02T13:48:04;25.30;20.40
5130;DHT22;2583;50.946;6.954;2023-07-02T13:50:32;25.30;20.50
5130;DHT22;2583;50.946;6.954;2023-07-02T13:52:58;25.20;20.70
5130;DHT22;2583;50.946;6.954;2023-07-02T13:55:25;25.50;20.50
5130;DHT22;2583;50.946;6.954;2023-07-02T13:57:55;26.20;18.70
5130;DHT22;2583;50.946;6.954;2023-07-02T14:00:24;27.10;17.90
5130;DHT22;2583;50.946;6.954;2023-07-02T14:02:51;26.80;17.20
5130;DHT22;2583;50.946;6.954;2023-07-02T14:05:18;26.80;16.80
5130;DHT22;2583;50.946;6.954;2023-07-02T14:07:45;27.40;16.50
5130;DHT22;2583;50.946;6.954;2023-07-02T14:10:12;27.60;16.30
5130;DHT22;2583;50.946;6.954;2023-07-02T14:12:40;27.00;16.50
5130;DHT22;2583;50.946;6.954;2023-07-02T14:15:09;26.50;17.20
5130;DHT22;2583;50.946;6.954;2023-07-02T14:17:36;26.30;17.80
5130;DHT22;2583;50.946;6.954;2023-07-02T14:20:03;26.60;18.20
5130;DHT22;2583;50.946;6.954;2023-07-02T14:22:31;27.00;17.80
5130;DHT22;2583;50.946;6.954;2023-07-02T14:24:57;27.00;17.40
5130;DHT22;2583;50.946;6.954;2023-07-02T14:27:24;27.20;16.70
5130;DHT22;2583;50.946;6.954;2023-07-02T14:29:51;27.20;17.10
5130;DHT22;2583;50.946;6.954;2023-07-02T14:32:18;26.90;17.60
5130;DHT22;2583;50.946;6.954;2023-07-02T14:34:45;26.50;17.70
5130;DHT22;2583;50.946;6.954;2023-07-02T14:37:12;26.10;18.40
5130;DHT22;2583;50.946;6.954;2023-07-02T14:39:39;25.60;19.10
5130;DHT22;2583;50.946;6.954;2023-07-02T14:42:11;25.60;19.10
5130;DHT22;2583;50.946;6.954;2023-07-02T14:44:38;25.60;18.80
5130;DHT22;2583;50.946;6.954;2023-07-02T14:47:05;25.40;19.10
5130;DHT22;2583;50.946;6.954;2023-07-02T14:49:32;25.30;19.20
5130;DHT22;2583;50.946;6.954;2023-07-02T14:51:59;25.20;19.40
5130;DHT22;2583;50.946;6.954;2023-07-02T14:54:26;25.20;19.70
5130;DHT22;2583;50.946;6.954;2023-07-02T14:56:52;25.20;20.00
5130;DHT22;2583;50.946;6.954;2023-07-02T14:59:19;25.10;20.10
5130;DHT22;2583;50.946;6.954;2023-07-02T15:01:46;25.10;20.20
5130;DHT22;2583;50.946;6.954;2023-07-02T15:04:14;25.10;20.10
5130;DHT22;2583;50.946;6.954;2023-07-02T15:06:43;25.00;20.30
5130;DHT22;2583;50.946;6.954;2023-07-02T15:09:10;24.90;20.40
5130;DHT22;2583;50.946;6.954;2023-07-02T15:11:36;24.90;20.60
5130;DHT22;2583;50.946;6.954;2023-07-02T15:14:03;25.00;19.90
5130;DHT22;2583;50.946;6.954;2023-07-02T15:16:30;24.90;19.80
5130;DHT22;2583;50.946;6.954;2023-07-02T15:18:57;25.00;19.60
5130;DHT22;2583;50.946;6.954;2023-07-02T15:21:24;25.20;19.70
5130;DHT22;2583;50.946;6.954;2023-07-02T15:23:51;25.10;19.40
5130;DHT22;2583;50.946;6.954;2023-07-02T15:26:18;25.00;19.20
5130;DHT22;2583;50.946;6.954;2023-07-02T15:28:45;24.80;19.60
5130;DHT22;2583;50.946;6.954;2023-07-02T15:31:12;24.60;19.50
5130;DHT22;2583;50.946;6.954;2023-07-02T15:33:39;24.60;19.70
5130;DHT22;2583;50.946;6.954;2023-07-02T15:36:07;24.50;19.90
5130;DHT22;2583;50.946;6.954;2023-07-02T15:38:36;24.40;20.20
5130;DHT22;2583;50.946;6.954;2023-07-02T15:41:06;24.50;20.40
5130;DHT22;2583;50.946;6.954;2023-07-02T15:43:34;24.40;20.30
5130;DHT22;2583;50.946;6.954;2023-07-02T15:46:01;24.50;20.60
5130;DHT22;2583;50.946;6.954;2023-07-02T15:48:27;24.50;20.80
5130;DHT22;2583;50.946;6.954;2023-07-02T15:50:54;24.50;20.70
5130;DHT22;2583;50.946;6.954;2023-07-02T15:53:22;24.60;20.80
5130;DHT22;2583;50.946;6.954;2023-07-02T15:55:58;24.40;20.60
5130;DHT22;2583;50.946;6.954;2023-07-02T15:58:28;24.40;20.70
5130;DHT22;2583;50.946;6.954;2023-07-02T16:00:55;24.40;20.80
5130;DHT22;2583;50.946;6.954;2023-07-02T16:03:22;24.40;21.20
5130;DHT22;2583;50.946;6.954;2023-07-02T16:05:56;24.20;21.10
5130;DHT22;2583;50.946;6.954;2023-07-02T16:08:24;24.10;21.60